Accueil
METAR-TAF:

METAR-TAF

Aéroports :

Aéroport de Tromsø

Tromsø, Norvège

latitude: 69-41N, longitude: 018-55E, altitude: 1 m

Observation

Le bulletin a été fait il y a 19 minutes, à 15:20 UTC
Vent 12 kt de sud/sud-ouest
Température 5°C
Humidité 93%
Pression 1005 hPa
Visibilité 10 km ou plus
Nuages fragmentés à une hauteur de 1700 ft

METAR: ENTC 131520Z 20012KT 9999 BKN017 05/04 Q1005 NOSIG RMK WIND 2600FT 20009KT

Heure: 16:39 (15:39 UTC)

Prévision

Prévision valable du 13 à 12 UTC au 14 à 12 UTC
Vent 8 kt de sud/sud-ouest
Visibilité 10 km ou plus
Quelques nuages à une hauteur de 500 ft
Nuages fragmentés à une hauteur de 3000 ft
faibles averses de pluie
Probabilité 40%
du 13 à 12 UTC au 14 à 12 UTC
Nuages fragmentés à une hauteur de 1200 ft

TAF: ENTC 1312/1412 20008KT 9999 -SHRA FEW005 BKN030 PROB40 1312/1412 BKN012

Observations et prévisions météorologiques de plus de 4000 aéroports (messages METAR et TAF).

Les stations disponibles sont représentées par des disques jaunes et rouges sur la carte.

Passer la souris dessus pour voir le nom de la station.

Cliquer dessus pour voir les observations et prévisions météorologiques.

Pour changer de carte: cliquez sur les boutons verts avec une croix noire pour zoomer, sur le bouton vert avec un tiret pour effectuer un zoom arrière, ou sur les flèches vertes pour les cartes adjacentes.


METAR-TAF: